sensor_id;sensor_type;location;lat;lon;timestamp;P1;durP1;ratioP1;P2;durP2;ratioP2
3747;SDS011;1889;50.058;8.688;2023-04-23T00:02:09;4.15;;;3.22;;
3747;SDS011;1889;50.058;8.688;2023-04-23T00:04:39;5.42;;;3.40;;
3747;SDS011;1889;50.058;8.688;2023-04-23T00:07:11;5.05;;;3.62;;
3747;SDS011;1889;50.058;8.688;2023-04-23T00:09:41;3.87;;;3.42;;
3747;SDS011;1889;50.058;8.688;2023-04-23T00:12:12;3.90;;;3.30;;
3747;SDS011;1889;50.058;8.688;2023-04-23T00:14:42;3.47;;;3.17;;
3747;SDS011;1889;50.058;8.688;2023-04-23T00:17:11;3.90;;;3.50;;
3747;SDS011;1889;50.058;8.688;2023-04-23T00:19:40;3.80;;;3.40;;
3747;SDS011;1889;50.058;8.688;2023-04-23T00:22:10;3.75;;;3.30;;
3747;SDS011;1889;50.058;8.688;2023-04-23T00:24:40;3.75;;;2.83;;
3747;SDS011;1889;50.058;8.688;2023-04-23T00:27:09;4.00;;;3.47;;
3747;SDS011;1889;50.058;8.688;2023-04-23T00:29:39;4.20;;;3.08;;
3747;SDS011;1889;50.058;8.688;2023-04-23T00:32:09;4.47;;;3.62;;
3747;SDS011;1889;50.058;8.688;2023-04-23T00:34:40;3.90;;;3.50;;
3747;SDS011;1889;50.058;8.688;2023-04-23T00:37:10;3.52;;;3.20;;
3747;SDS011;1889;50.058;8.688;2023-04-23T00:39:39;7.33;;;4.10;;
3747;SDS011;1889;50.058;8.688;2023-04-23T00:42:09;8.28;;;3.92;;
3747;SDS011;1889;50.058;8.688;2023-04-23T00:44:39;4.62;;;3.50;;
3747;SDS011;1889;50.058;8.688;2023-04-23T00:47:08;4.15;;;3.75;;
3747;SDS011;1889;50.058;8.688;2023-04-23T00:49:38;4.35;;;3.90;;
3747;SDS011;1889;50.058;8.688;2023-04-23T00:52:09;4.22;;;3.83;;
3747;SDS011;1889;50.058;8.688;2023-04-23T00:54:39;4.55;;;3.85;;
3747;SDS011;1889;50.058;8.688;2023-04-23T00:57:08;6.75;;;4.33;;
3747;SDS011;1889;50.058;8.688;2023-04-23T00:59:38;4.35;;;3.95;;
3747;SDS011;1889;50.058;8.688;2023-04-23T01:02:07;6.12;;;5.53;;
3747;SDS011;1889;50.058;8.688;2023-04-23T01:04:37;4.60;;;4.12;;
3747;SDS011;1889;50.058;8.688;2023-04-23T01:07:08;7.17;;;4.53;;
3747;SDS011;1889;50.058;8.688;2023-04-23T01:09:39;6.05;;;4.12;;
3747;SDS011;1889;50.058;8.688;2023-04-23T01:12:09;5.05;;;4.55;;
3747;SDS011;1889;50.058;8.688;2023-04-23T01:14:39;8.43;;;4.33;;
3747;SDS011;1889;50.058;8.688;2023-04-23T01:17:11;5.22;;;4.72;;
3747;SDS011;1889;50.058;8.688;2023-04-23T01:19:40;5.58;;;5.05;;
3747;SDS011;1889;50.058;8.688;2023-04-23T01:22:11;6.00;;;5.03;;
3747;SDS011;1889;50.058;8.688;2023-04-23T01:24:41;6.72;;;5.08;;
3747;SDS011;1889;50.058;8.688;2023-04-23T01:27:10;5.53;;;4.83;;
3747;SDS011;1889;50.058;8.688;2023-04-23T01:29:40;5.97;;;4.72;;
3747;SDS011;1889;50.058;8.688;2023-04-23T01:32:10;8.75;;;5.28;;
3747;SDS011;1889;50.058;8.688;2023-04-23T01:34:39;7.42;;;4.85;;
3747;SDS011;1889;50.058;8.688;2023-04-23T01:37:09;5.80;;;5.28;;
3747;SDS011;1889;50.058;8.688;2023-04-23T01:39:39;5.72;;;4.97;;
3747;SDS011;1889;50.058;8.688;2023-04-23T01:42:08;8.00;;;5.97;;
3747;SDS011;1889;50.058;8.688;2023-04-23T01:44:38;6.67;;;5.58;;
3747;SDS011;1889;50.058;8.688;2023-04-23T01:47:07;6.55;;;5.42;;
3747;SDS011;1889;50.058;8.688;2023-04-23T01:49:37;6.58;;;5.70;;
3747;SDS011;1889;50.058;8.688;2023-04-23T01:52:07;6.20;;;5.55;;
3747;SDS011;1889;50.058;8.688;2023-04-23T01:54:36;6.97;;;6.22;;
3747;SDS011;1889;50.058;8.688;2023-04-23T01:57:05;5.53;;;5.00;;
3747;SDS011;1889;50.058;8.688;2023-04-23T01:59:35;6.97;;;5.60;;
3747;SDS011;1889;50.058;8.688;2023-04-23T02:02:05;6.30;;;5.70;;
3747;SDS011;1889;50.058;8.688;2023-04-23T02:04:36;6.62;;;6.00;;
3747;SDS011;1889;50.058;8.688;2023-04-23T02:07:08;6.62;;;6.05;;
3747;SDS011;1889;50.058;8.688;2023-04-23T02:09:38;6.90;;;6.20;;
3747;SDS011;1889;50.058;8.688;2023-04-23T02:12:08;6.72;;;6.12;;
3747;SDS011;1889;50.058;8.688;2023-04-23T02:14:37;6.65;;;6.00;;
3747;SDS011;1889;50.058;8.688;2023-04-23T02:17:06;6.03;;;5.40;;
3747;SDS011;1889;50.058;8.688;2023-04-23T02:19:36;6.62;;;5.95;;
3747;SDS011;1889;50.058;8.688;2023-04-23T02:22:05;7.12;;;5.72;;
3747;SDS011;1889;50.058;8.688;2023-04-23T02:24:35;6.75;;;6.08;;
3747;SDS011;1889;50.058;8.688;2023-04-23T02:27:05;6.92;;;6.20;;
3747;SDS011;1889;50.058;8.688;2023-04-23T02:29:35;6.75;;;6.05;;
3747;SDS011;1889;50.058;8.688;2023-04-23T02:32:04;8.00;;;6.70;;
3747;SDS011;1889;50.058;8.688;2023-04-23T02:34:34;6.50;;;5.95;;
3747;SDS011;1889;50.058;8.688;2023-04-23T02:37:03;7.55;;;6.17;;
3747;SDS011;1889;50.058;8.688;2023-04-23T02:39:33;8.00;;;6.28;;
3747;SDS011;1889;50.058;8.688;2023-04-23T02:42:02;7.10;;;6.03;;
3747;SDS011;1889;50.058;8.688;2023-04-23T02:44:32;6.80;;;6.03;;
3747;SDS011;1889;50.058;8.688;2023-04-23T02:47:01;7.72;;;6.42;;
3747;SDS011;1889;50.058;8.688;2023-04-23T02:49:31;8.23;;;6.58;;
3747;SDS011;1889;50.058;8.688;2023-04-23T02:52:00;6.53;;;5.92;;
3747;SDS011;1889;50.058;8.688;2023-04-23T02:54:31;6.55;;;5.95;;
3747;SDS011;1889;50.058;8.688;2023-04-23T02:57:00;6.45;;;5.85;;
3747;SDS011;1889;50.058;8.688;2023-04-23T02:59:30;6.40;;;5.80;;
3747;SDS011;1889;50.058;8.688;2023-04-23T03:02:00;7.30;;;6.00;;
3747;SDS011;1889;50.058;8.688;2023-04-23T03:04:29;7.72;;;6.92;;
3747;SDS011;1889;50.058;8.688;2023-04-23T03:06:59;6.78;;;6.17;;
3747;SDS011;1889;50.058;8.688;2023-04-23T03:09:29;6.40;;;5.80;;
3747;SDS011;1889;50.058;8.688;2023-04-23T03:11:58;6.47;;;5.87;;
3747;SDS011;1889;50.058;8.688;2023-04-23T03:14:28;6.53;;;5.92;;
3747;SDS011;1889;50.058;8.688;2023-04-23T03:16:58;8.00;;;6.28;;
3747;SDS011;1889;50.058;8.688;2023-04-23T03:19:27;6.80;;;6.00;;
3747;SDS011;1889;50.058;8.688;2023-04-23T03:21:56;6.35;;;5.80;;
3747;SDS011;1889;50.058;8.688;2023-04-23T03:24:26;7.00;;;6.22;;
3747;SDS011;1889;50.058;8.688;2023-04-23T03:26:57;7.62;;;6.35;;
3747;SDS011;1889;50.058;8.688;2023-04-23T03:29:26;7.95;;;5.83;;
3747;SDS011;1889;50.058;8.688;2023-04-23T03:31:56;5.92;;;5.40;;
3747;SDS011;1889;50.058;8.688;2023-04-23T03:34:25;6.15;;;5.60;;
3747;SDS011;1889;50.058;8.688;2023-04-23T03:36:54;8.05;;;5.70;;
3747;SDS011;1889;50.058;8.688;2023-04-23T03:39:23;8.05;;;5.70;;
3747;SDS011;1889;50.058;8.688;2023-04-23T03:41:53;6.22;;;5.17;;
3747;SDS011;1889;50.058;8.688;2023-04-23T03:44:22;5.97;;;5.47;;
3747;SDS011;1889;50.058;8.688;2023-04-23T03:46:51;7.20;;;6.10;;
3747;SDS011;1889;50.058;8.688;2023-04-23T03:49:21;6.50;;;5.40;;
3747;SDS011;1889;50.058;8.688;2023-04-23T03:51:50;6.00;;;5.50;;
3747;SDS011;1889;50.058;8.688;2023-04-23T03:54:19;6.08;;;5.47;;
3747;SDS011;1889;50.058;8.688;2023-04-23T03:56:50;6.28;;;5.70;;
3747;SDS011;1889;50.058;8.688;2023-04-23T03:59:19;6.87;;;5.72;;
3747;SDS011;1889;50.058;8.688;2023-04-23T04:01:49;6.15;;;5.60;;
3747;SDS011;1889;50.058;8.688;2023-04-23T04:04:18;5.83;;;5.28;;
3747;SDS011;1889;50.058;8.688;2023-04-23T04:06:47;6.17;;;5.67;;
3747;SDS011;1889;50.058;8.688;2023-04-23T04:09:17;6.30;;;5.70;;
3747;SDS011;1889;50.058;8.688;2023-04-23T04:11:47;6.22;;;5.62;;
3747;SDS011;1889;50.058;8.688;2023-04-23T04:14:16;6.55;;;5.35;;
3747;SDS011;1889;50.058;8.688;2023-04-23T04:16:45;8.08;;;5.60;;
3747;SDS011;1889;50.058;8.688;2023-04-23T04:19:15;6.30;;;5.80;;
3747;SDS011;1889;50.058;8.688;2023-04-23T04:21:44;6.15;;;5.62;;
3747;SDS011;1889;50.058;8.688;2023-04-23T04:24:18;6.28;;;5.30;;
3747;SDS011;1889;50.058;8.688;2023-04-23T04:26:48;6.12;;;5.53;;
3747;SDS011;1889;50.058;8.688;2023-04-23T04:29:19;6.05;;;5.45;;
3747;SDS011;1889;50.058;8.688;2023-04-23T04:31:50;6.60;;;5.30;;
3747;SDS011;1889;50.058;8.688;2023-04-23T04:34:19;6.22;;;5.62;;
3747;SDS011;1889;50.058;8.688;2023-04-23T04:36:49;6.03;;;5.42;;
3747;SDS011;1889;50.058;8.688;2023-04-23T04:39:20;6.20;;;5.60;;
3747;SDS011;1889;50.058;8.688;2023-04-23T04:41:49;5.85;;;5.25;;
3747;SDS011;1889;50.058;8.688;2023-04-23T04:44:19;5.87;;;5.28;;
3747;SDS011;1889;50.058;8.688;2023-04-23T04:46:49;6.42;;;4.80;;
3747;SDS011;1889;50.058;8.688;2023-04-23T04:49:19;5.60;;;5.10;;
3747;SDS011;1889;50.058;8.688;2023-04-23T04:51:48;6.10;;;5.60;;
3747;SDS011;1889;50.058;8.688;2023-04-23T04:54:17;6.30;;;5.33;;
3747;SDS011;1889;50.058;8.688;2023-04-23T04:56:48;5.70;;;4.65;;
3747;SDS011;1889;50.058;8.688;2023-04-23T04:59:17;5.53;;;5.03;;
3747;SDS011;1889;50.058;8.688;2023-04-23T05:01:46;5.42;;;4.92;;
3747;SDS011;1889;50.058;8.688;2023-04-23T05:04:16;5.80;;;4.78;;
3747;SDS011;1889;50.058;8.688;2023-04-23T05:06:45;6.28;;;5.20;;
3747;SDS011;1889;50.058;8.688;2023-04-23T05:09:14;5.80;;;5.30;;
3747;SDS011;1889;50.058;8.688;2023-04-23T05:11:44;6.35;;;5.47;;
3747;SDS011;1889;50.058;8.688;2023-04-23T05:14:13;6.35;;;5.72;;
3747;SDS011;1889;50.058;8.688;2023-04-23T05:16:42;5.67;;;5.17;;
3747;SDS011;1889;50.058;8.688;2023-04-23T05:19:11;5.35;;;4.85;;
3747;SDS011;1889;50.058;8.688;2023-04-23T05:21:41;6.20;;;5.58;;
3747;SDS011;1889;50.058;8.688;2023-04-23T05:24:10;5.30;;;4.80;;
3747;SDS011;1889;50.058;8.688;2023-04-23T05:26:39;5.00;;;4.50;;
3747;SDS011;1889;50.058;8.688;2023-04-23T05:29:09;6.40;;;5.47;;
3747;SDS011;1889;50.058;8.688;2023-04-23T05:31:40;5.05;;;4.55;;
3747;SDS011;1889;50.058;8.688;2023-04-23T05:34:09;5.62;;;5.12;;
3747;SDS011;1889;50.058;8.688;2023-04-23T05:36:38;5.40;;;4.90;;
3747;SDS011;1889;50.058;8.688;2023-04-23T05:39:07;5.55;;;4.97;;
3747;SDS011;1889;50.058;8.688;2023-04-23T05:41:37;7.37;;;5.25;;
3747;SDS011;1889;50.058;8.688;2023-04-23T05:44:06;5.97;;;5.10;;
3747;SDS011;1889;50.058;8.688;2023-04-23T05:46:36;8.78;;;4.83;;
3747;SDS011;1889;50.058;8.688;2023-04-23T05:49:05;5.65;;;5.15;;
3747;SDS011;1889;50.058;8.688;2023-04-23T05:51:34;6.12;;;4.53;;
3747;SDS011;1889;50.058;8.688;2023-04-23T05:54:04;5.35;;;4.95;;
3747;SDS011;1889;50.058;8.688;2023-04-23T05:56:33;5.55;;;4.75;;
3747;SDS011;1889;50.058;8.688;2023-04-23T05:59:02;5.40;;;4.50;;
3747;SDS011;1889;50.058;8.688;2023-04-23T06:01:32;6.08;;;4.62;;
3747;SDS011;1889;50.058;8.688;2023-04-23T06:04:02;6.33;;;4.42;;
3747;SDS011;1889;50.058;8.688;2023-04-23T06:06:32;4.37;;;3.98;;
3747;SDS011;1889;50.058;8.688;2023-04-23T06:09:01;5.10;;;4.60;;
3747;SDS011;1889;50.058;8.688;2023-04-23T06:11:31;4.58;;;4.17;;
3747;SDS011;1889;50.058;8.688;2023-04-23T06:14:02;5.95;;;4.22;;
3747;SDS011;1889;50.058;8.688;2023-04-23T06:16:31;4.80;;;4.33;;
3747;SDS011;1889;50.058;8.688;2023-04-23T06:19:02;4.92;;;4.45;;
3747;SDS011;1889;50.058;8.688;2023-04-23T06:21:31;5.08;;;4.40;;
3747;SDS011;1889;50.058;8.688;2023-04-23T06:24:01;4.45;;;4.05;;
3747;SDS011;1889;50.058;8.688;2023-04-23T06:26:30;4.85;;;3.72;;
3747;SDS011;1889;50.058;8.688;2023-04-23T06:28:59;4.75;;;4.35;;
3747;SDS011;1889;50.058;8.688;2023-04-23T06:31:29;4.53;;;4.10;;
3747;SDS011;1889;50.058;8.688;2023-04-23T06:33:58;5.00;;;4.45;;
3747;SDS011;1889;50.058;8.688;2023-04-23T06:36:27;6.45;;;4.28;;
3747;SDS011;1889;50.058;8.688;2023-04-23T06:38:57;4.30;;;3.90;;
3747;SDS011;1889;50.058;8.688;2023-04-23T06:41:26;4.40;;;4.00;;
3747;SDS011;1889;50.058;8.688;2023-04-23T06:43:56;4.37;;;3.98;;
3747;SDS011;1889;50.058;8.688;2023-04-23T06:46:25;4.80;;;3.58;;
3747;SDS011;1889;50.058;8.688;2023-04-23T06:48:54;4.87;;;3.75;;
3747;SDS011;1889;50.058;8.688;2023-04-23T06:51:24;5.75;;;4.00;;
3747;SDS011;1889;50.058;8.688;2023-04-23T06:53:58;4.33;;;3.92;;
3747;SDS011;1889;50.058;8.688;2023-04-23T06:56:30;4.28;;;3.75;;
3747;SDS011;1889;50.058;8.688;2023-04-23T06:58:59;4.50;;;4.10;;
3747;SDS011;1889;50.058;8.688;2023-04-23T07:01:29;3.85;;;3.45;;
3747;SDS011;1889;50.058;8.688;2023-04-23T07:03:59;4.50;;;3.65;;
3747;SDS011;1889;50.058;8.688;2023-04-23T07:06:28;5.30;;;4.30;;
3747;SDS011;1889;50.058;8.688;2023-04-23T07:08:57;4.00;;;3.70;;
3747;SDS011;1889;50.058;8.688;2023-04-23T07:11:27;4.60;;;4.20;;
3747;SDS011;1889;50.058;8.688;2023-04-23T07:13:58;4.85;;;4.15;;
3747;SDS011;1889;50.058;8.688;2023-04-23T07:16:27;4.97;;;4.20;;
3747;SDS011;1889;50.058;8.688;2023-04-23T07:18:59;4.15;;;3.85;;
3747;SDS011;1889;50.058;8.688;2023-04-23T07:21:29;4.10;;;3.70;;
3747;SDS011;1889;50.058;8.688;2023-04-23T07:23:59;4.08;;;3.77;;
3747;SDS011;1889;50.058;8.688;2023-04-23T07:26:34;4.90;;;4.50;;
3747;SDS011;1889;50.058;8.688;2023-04-23T07:29:04;4.35;;;3.95;;
3747;SDS011;1889;50.058;8.688;2023-04-23T07:31:35;4.92;;;4.47;;
3747;SDS011;1889;50.058;8.688;2023-04-23T07:34:08;4.90;;;4.40;;
3747;SDS011;1889;50.058;8.688;2023-04-23T07:36:37;4.70;;;4.30;;
3747;SDS011;1889;50.058;8.688;2023-04-23T07:39:07;5.22;;;4.72;;
3747;SDS011;1889;50.058;8.688;2023-04-23T07:41:36;5.10;;;4.60;;
3747;SDS011;1889;50.058;8.688;2023-04-23T07:44:05;4.58;;;4.10;;
3747;SDS011;1889;50.058;8.688;2023-04-23T07:46:35;4.17;;;3.87;;
3747;SDS011;1889;50.058;8.688;2023-04-23T07:49:04;4.25;;;3.95;;
3747;SDS011;1889;50.058;8.688;2023-04-23T07:51:34;5.20;;;4.17;;
3747;SDS011;1889;50.058;8.688;2023-04-23T07:54:03;4.37;;;3.98;;
3747;SDS011;1889;50.058;8.688;2023-04-23T07:56:33;4.83;;;4.33;;
3747;SDS011;1889;50.058;8.688;2023-04-23T07:59:02;4.78;;;4.22;;
3747;SDS011;1889;50.058;8.688;2023-04-23T08:01:32;5.15;;;4.58;;
3747;SDS011;1889;50.058;8.688;2023-04-23T08:04:02;5.97;;;5.37;;
3747;SDS011;1889;50.058;8.688;2023-04-23T08:06:31;6.25;;;5.65;;
3747;SDS011;1889;50.058;8.688;2023-04-23T08:09:02;5.95;;;5.37;;
3747;SDS011;1889;50.058;8.688;2023-04-23T08:11:33;5.85;;;5.35;;
3747;SDS011;1889;50.058;8.688;2023-04-23T08:14:04;5.60;;;4.92;;
3747;SDS011;1889;50.058;8.688;2023-04-23T08:16:33;5.95;;;4.22;;
3747;SDS011;1889;50.058;8.688;2023-04-23T08:19:03;5.53;;;5.03;;
3747;SDS011;1889;50.058;8.688;2023-04-23T08:21:32;4.70;;;4.30;;
3747;SDS011;1889;50.058;8.688;2023-04-23T08:24:02;5.62;;;3.72;;
3747;SDS011;1889;50.058;8.688;2023-04-23T08:26:36;4.15;;;3.55;;
3747;SDS011;1889;50.058;8.688;2023-04-23T08:29:05;4.08;;;3.75;;
3747;SDS011;1889;50.058;8.688;2023-04-23T08:31:34;3.67;;;3.05;;
3747;SDS011;1889;50.058;8.688;2023-04-23T08:34:03;3.58;;;3.27;;
3747;SDS011;1889;50.058;8.688;2023-04-23T08:36:33;3.90;;;3.58;;
3747;SDS011;1889;50.058;8.688;2023-04-23T08:39:02;3.47;;;3.17;;
3747;SDS011;1889;50.058;8.688;2023-04-23T08:41:34;3.77;;;3.45;;
3747;SDS011;1889;50.058;8.688;2023-04-23T08:44:11;3.15;;;2.95;;
3747;SDS011;1889;50.058;8.688;2023-04-23T08:46:43;4.28;;;3.30;;
3747;SDS011;1889;50.058;8.688;2023-04-23T08:49:14;3.35;;;3.05;;
3747;SDS011;1889;50.058;8.688;2023-04-23T08:52:08;3.05;;;2.80;;
3747;SDS011;1889;50.058;8.688;2023-04-23T08:54:27;2.75;;;2.55;;
3747;SDS011;1889;50.058;8.688;2023-04-23T08:56:56;3.60;;;3.30;;
3747;SDS011;1889;50.058;8.688;2023-04-23T08:59:31;3.45;;;3.25;;
3747;SDS011;1889;50.058;8.688;2023-04-23T09:02:00;2.85;;;2.65;;
3747;SDS011;1889;50.058;8.688;2023-04-23T09:04:33;3.92;;;3.37;;
3747;SDS011;1889;50.058;8.688;2023-04-23T09:07:03;3.30;;;3.00;;
3747;SDS011;1889;50.058;8.688;2023-04-23T09:09:36;3.27;;;2.98;;
3747;SDS011;1889;50.058;8.688;2023-04-23T09:12:07;3.37;;;3.08;;
3747;SDS011;1889;50.058;8.688;2023-04-23T09:14:37;3.72;;;3.42;;
3747;SDS011;1889;50.058;8.688;2023-04-23T09:17:06;3.17;;;2.90;;
3747;SDS011;1889;50.058;8.688;2023-04-23T09:19:36;3.45;;;3.17;;
3747;SDS011;1889;50.058;8.688;2023-04-23T09:22:07;3.00;;;2.67;;
3747;SDS011;1889;50.058;8.688;2023-04-23T09:24:36;3.55;;;2.85;;
3747;SDS011;1889;50.058;8.688;2023-04-23T09:27:07;2.75;;;2.55;;
3747;SDS011;1889;50.058;8.688;2023-04-23T09:29:36;3.25;;;2.90;;
3747;SDS011;1889;50.058;8.688;2023-04-23T09:32:06;3.50;;;2.67;;
3747;SDS011;1889;50.058;8.688;2023-04-23T09:34:36;3.65;;;2.83;;
3747;SDS011;1889;50.058;8.688;2023-04-23T09:37:06;3.12;;;2.80;;
3747;SDS011;1889;50.058;8.688;2023-04-23T09:39:37;2.90;;;2.60;;
3747;SDS011;1889;50.058;8.688;2023-04-23T09:42:07;3.12;;;2.47;;
3747;SDS011;1889;50.058;8.688;2023-04-23T09:44:38;3.12;;;2.83;;
3747;SDS011;1889;50.058;8.688;2023-04-23T09:47:07;4.25;;;2.92;;
3747;SDS011;1889;50.058;8.688;2023-04-23T09:49:45;3.10;;;2.80;;
3747;SDS011;1889;50.058;8.688;2023-04-23T09:52:15;3.02;;;2.17;;
3747;SDS011;1889;50.058;8.688;2023-04-23T09:54:45;3.27;;;2.27;;
3747;SDS011;1889;50.058;8.688;2023-04-23T09:57:15;4.95;;;2.40;;
3747;SDS011;1889;50.058;8.688;2023-04-23T09:59:44;2.40;;;2.20;;
3747;SDS011;1889;50.058;8.688;2023-04-23T10:02:14;2.87;;;2.55;;
3747;SDS011;1889;50.058;8.688;2023-04-23T10:04:44;2.90;;;2.33;;
3747;SDS011;1889;50.058;8.688;2023-04-23T10:07:16;2.65;;;2.20;;
3747;SDS011;1889;50.058;8.688;2023-04-23T10:09:46;3.00;;;2.20;;
3747;SDS011;1889;50.058;8.688;2023-04-23T10:12:16;4.17;;;2.20;;
3747;SDS011;1889;50.058;8.688;2023-04-23T10:14:47;2.72;;;2.00;;
3747;SDS011;1889;50.058;8.688;2023-04-23T10:17:18;2.35;;;2.15;;
3747;SDS011;1889;50.058;8.688;2023-04-23T10:19:48;1.92;;;1.82;;
3747;SDS011;1889;50.058;8.688;2023-04-23T10:22:18;3.92;;;2.37;;
3747;SDS011;1889;50.058;8.688;2023-04-23T10:24:56;3.20;;;2.90;;
3747;SDS011;1889;50.058;8.688;2023-04-23T10:27:28;2.90;;;2.60;;
3747;SDS011;1889;50.058;8.688;2023-04-23T10:29:59;2.33;;;2.03;;
3747;SDS011;1889;50.058;8.688;2023-04-23T10:32:28;3.45;;;2.70;;
3747;SDS011;1889;50.058;8.688;2023-04-23T10:35:00;2.50;;;2.30;;
3747;SDS011;1889;50.058;8.688;2023-04-23T10:37:30;2.45;;;2.00;;
3747;SDS011;1889;50.058;8.688;2023-04-23T10:40:11;2.75;;;2.42;;
3747;SDS011;1889;50.058;8.688;2023-04-23T10:42:36;2.27;;;2.10;;
3747;SDS011;1889;50.058;8.688;2023-04-23T10:45:11;2.30;;;2.10;;
3747;SDS011;1889;50.058;8.688;2023-04-23T10:47:45;2.35;;;2.15;;
3747;SDS011;1889;50.058;8.688;2023-04-23T10:50:18;3.25;;;2.37;;
3747;SDS011;1889;50.058;8.688;2023-04-23T10:52:49;3.13;;;2.20;;
3747;SDS011;1889;50.058;8.688;2023-04-23T10:55:21;3.72;;;2.40;;
3747;SDS011;1889;50.058;8.688;2023-04-23T10:58:05;2.80;;;1.77;;
3747;SDS011;1889;50.058;8.688;2023-04-23T11:03:30;2.35;;;2.15;;
3747;SDS011;1889;50.058;8.688;2023-04-23T11:06:02;5.12;;;2.20;;
3747;SDS011;1889;50.058;8.688;2023-04-23T11:08:35;2.08;;;1.95;;
3747;SDS011;1889;50.058;8.688;2023-04-23T11:11:08;2.12;;;1.62;;
3747;SDS011;1889;50.058;8.688;2023-04-23T11:13:40;1.67;;;1.57;;
3747;SDS011;1889;50.058;8.688;2023-04-23T11:16:21;2.47;;;1.70;;
3747;SDS011;1889;50.058;8.688;2023-04-23T11:24:28;3.33;;;1.60;;
3747;SDS011;1889;50.058;8.688;2023-04-23T11:26:58;2.67;;;2.00;;
3747;SDS011;1889;50.058;8.688;2023-04-23T11:29:28;3.73;;;2.27;;
3747;SDS011;1889;50.058;8.688;2023-04-23T11:31:58;2.10;;;1.90;;
3747;SDS011;1889;50.058;8.688;2023-04-23T11:34:27;2.10;;;1.90;;
3747;SDS011;1889;50.058;8.688;2023-04-23T11:36:57;2.13;;;1.93;;
3747;SDS011;1889;50.058;8.688;2023-04-23T11:39:27;2.33;;;1.90;;
3747;SDS011;1889;50.058;8.688;2023-04-23T11:41:56;3.40;;;2.10;;
3747;SDS011;1889;50.058;8.688;2023-04-23T11:44:29;2.63;;;1.83;;
3747;SDS011;1889;50.058;8.688;2023-04-23T11:46:59;3.50;;;2.27;;
3747;SDS011;1889;50.058;8.688;2023-04-23T11:49:28;1.80;;;1.70;;
3747;SDS011;1889;50.058;8.688;2023-04-23T11:51:58;5.43;;;2.37;;
3747;SDS011;1889;50.058;8.688;2023-04-23T11:54:28;2.63;;;2.43;;
3747;SDS011;1889;50.058;8.688;2023-04-23T11:56:57;3.30;;;1.83;;
3747;SDS011;1889;50.058;8.688;2023-04-23T11:59:26;2.10;;;1.83;;
3747;SDS011;1889;50.058;8.688;2023-04-23T12:01:56;2.07;;;1.67;;
3747;SDS011;1889;50.058;8.688;2023-04-23T12:04:27;2.17;;;1.60;;
3747;SDS011;1889;50.058;8.688;2023-04-23T12:06:57;2.53;;;1.80;;
3747;SDS011;1889;50.058;8.688;2023-04-23T12:09:27;4.10;;;1.60;;
3747;SDS011;1889;50.058;8.688;2023-04-23T12:11:56;1.70;;;1.60;;
3747;SDS011;1889;50.058;8.688;2023-04-23T12:14:27;1.73;;;1.63;;
3747;SDS011;1889;50.058;8.688;2023-04-23T12:16:57;2.73;;;1.90;;
3747;SDS011;1889;50.058;8.688;2023-04-23T12:19:29;4.17;;;2.10;;
3747;SDS011;1889;50.058;8.688;2023-04-23T12:21:59;1.67;;;1.53;;
3747;SDS011;1889;50.058;8.688;2023-04-23T12:24:30;3.10;;;1.90;;
3747;SDS011;1889;50.058;8.688;2023-04-23T12:27:13;3.80;;;1.90;;
3747;SDS011;1889;50.058;8.688;2023-04-23T12:29:44;1.97;;;1.87;;
3747;SDS011;1889;50.058;8.688;2023-04-23T12:32:17;2.80;;;1.90;;
3747;SDS011;1889;50.058;8.688;2023-04-23T12:34:54;2.10;;;1.50;;
3747;SDS011;1889;50.058;8.688;2023-04-23T12:37:24;1.63;;;1.53;;
3747;SDS011;1889;50.058;8.688;2023-04-23T12:39:55;2.37;;;1.80;;
3747;SDS011;1889;50.058;8.688;2023-04-23T12:42:25;2.80;;;1.97;;
3747;SDS011;1889;50.058;8.688;2023-04-23T12:44:54;2.07;;;1.83;;
3747;SDS011;1889;50.058;8.688;2023-04-23T12:47:24;1.70;;;1.60;;
3747;SDS011;1889;50.058;8.688;2023-04-23T12:49:53;2.10;;;1.90;;
3747;SDS011;1889;50.058;8.688;2023-04-23T12:52:23;3.00;;;1.80;;
3747;SDS011;1889;50.058;8.688;2023-04-23T12:54:52;2.87;;;2.00;;
3747;SDS011;1889;50.058;8.688;2023-04-23T12:57:22;1.73;;;1.63;;
3747;SDS011;1889;50.058;8.688;2023-04-23T12:59:51;2.03;;;1.80;;
3747;SDS011;1889;50.058;8.688;2023-04-23T13:02:21;1.43;;;1.33;;
3747;SDS011;1889;50.058;8.688;2023-04-23T13:04:51;1.73;;;1.63;;
3747;SDS011;1889;50.058;8.688;2023-04-23T13:07:22;1.77;;;1.40;;
3747;SDS011;1889;50.058;8.688;2023-04-23T13:09:51;1.50;;;1.40;;
3747;SDS011;1889;50.058;8.688;2023-04-23T13:12:20;1.33;;;1.00;;
3747;SDS011;1889;50.058;8.688;2023-04-23T13:14:49;1.73;;;1.40;;
3747;SDS011;1889;50.058;8.688;2023-04-23T13:17:18;1.80;;;1.30;;
3747;SDS011;1889;50.058;8.688;2023-04-23T13:19:48;1.30;;;1.20;;
3747;SDS011;1889;50.058;8.688;2023-04-23T13:22:17;1.40;;;1.30;;
3747;SDS011;1889;50.058;8.688;2023-04-23T13:24:46;2.73;;;1.13;;
3747;SDS011;1889;50.058;8.688;2023-04-23T13:27:15;2.30;;;1.30;;
3747;SDS011;1889;50.058;8.688;2023-04-23T13:29:44;3.00;;;1.20;;
3747;SDS011;1889;50.058;8.688;2023-04-23T13:32:13;1.70;;;1.13;;
3747;SDS011;1889;50.058;8.688;2023-04-23T13:34:42;1.73;;;1.10;;
3747;SDS011;1889;50.058;8.688;2023-04-23T13:37:11;1.70;;;1.60;;
3747;SDS011;1889;50.058;8.688;2023-04-23T13:39:40;1.27;;;1.17;;
3747;SDS011;1889;50.058;8.688;2023-04-23T13:42:09;1.20;;;1.20;;
3747;SDS011;1889;50.058;8.688;2023-04-23T13:44:38;1.47;;;1.10;;
3747;SDS011;1889;50.058;8.688;2023-04-23T13:47:07;1.60;;;1.50;;
3747;SDS011;1889;50.058;8.688;2023-04-23T13:49:36;1.10;;;1.10;;
3747;SDS011;1889;50.058;8.688;2023-04-23T13:52:05;1.17;;;1.10;;
3747;SDS011;1889;50.058;8.688;2023-04-23T13:54:35;1.27;;;1.20;;
3747;SDS011;1889;50.058;8.688;2023-04-23T13:57:05;1.50;;;1.07;;
3747;SDS011;1889;50.058;8.688;2023-04-23T13:59:34;1.40;;;1.00;;
3747;SDS011;1889;50.058;8.688;2023-04-23T14:02:03;1.43;;;1.10;;
3747;SDS011;1889;50.058;8.688;2023-04-23T14:04:32;1.90;;;1.03;;
3747;SDS011;1889;50.058;8.688;2023-04-23T14:07:01;1.47;;;1.10;;
3747;SDS011;1889;50.058;8.688;2023-04-23T14:09:30;1.40;;;1.03;;
3747;SDS011;1889;50.058;8.688;2023-04-23T14:11:59;1.77;;;0.90;;
3747;SDS011;1889;50.058;8.688;2023-04-23T14:14:28;2.70;;;1.10;;
3747;SDS011;1889;50.058;8.688;2023-04-23T14:16:57;1.30;;;1.20;;
3747;SDS011;1889;50.058;8.688;2023-04-23T14:19:27;1.13;;;1.00;;
3747;SDS011;1889;50.058;8.688;2023-04-23T14:21:57;1.30;;;1.10;;
3747;SDS011;1889;50.058;8.688;2023-04-23T14:24:27;2.37;;;1.40;;
3747;SDS011;1889;50.058;8.688;2023-04-23T14:26:58;1.77;;;1.27;;
3747;SDS011;1889;50.058;8.688;2023-04-23T14:29:28;1.20;;;1.10;;
3747;SDS011;1889;50.058;8.688;2023-04-23T14:31:59;1.70;;;1.20;;
3747;SDS011;1889;50.058;8.688;2023-04-23T14:34:29;1.67;;;1.07;;
3747;SDS011;1889;50.058;8.688;2023-04-23T14:36:58;1.20;;;1.10;;
3747;SDS011;1889;50.058;8.688;2023-04-23T14:39:27;1.17;;;1.00;;
3747;SDS011;1889;50.058;8.688;2023-04-23T14:41:56;1.57;;;1.47;;
3747;SDS011;1889;50.058;8.688;2023-04-23T14:44:25;1.20;;;1.03;;
3747;SDS011;1889;50.058;8.688;2023-04-23T14:46:54;2.00;;;1.10;;
3747;SDS011;1889;50.058;8.688;2023-04-23T14:49:23;1.33;;;0.80;;
3747;SDS011;1889;50.058;8.688;2023-04-23T14:51:52;1.20;;;1.10;;
3747;SDS011;1889;50.058;8.688;2023-04-23T14:54:21;1.20;;;1.00;;
3747;SDS011;1889;50.058;8.688;2023-04-23T14:56:51;1.37;;;1.10;;
3747;SDS011;1889;50.058;8.688;2023-04-23T14:59:20;2.63;;;1.20;;
3747;SDS011;1889;50.058;8.688;2023-04-23T15:01:50;2.87;;;0.80;;
3747;SDS011;1889;50.058;8.688;2023-04-23T15:04:19;1.00;;;0.90;;
3747;SDS011;1889;50.058;8.688;2023-04-23T15:06:48;1.30;;;1.20;;
3747;SDS011;1889;50.058;8.688;2023-04-23T15:09:17;1.20;;;0.97;;
3747;SDS011;1889;50.058;8.688;2023-04-23T15:11:46;1.10;;;1.00;;
3747;SDS011;1889;50.058;8.688;2023-04-23T15:14:24;1.73;;;1.37;;
3747;SDS011;1889;50.058;8.688;2023-04-23T15:16:54;2.13;;;1.17;;
3747;SDS011;1889;50.058;8.688;2023-04-23T15:19:23;2.40;;;1.20;;
3747;SDS011;1889;50.058;8.688;2023-04-23T15:21:52;2.10;;;1.10;;
3747;SDS011;1889;50.058;8.688;2023-04-23T15:24:21;2.03;;;1.23;;
3747;SDS011;1889;50.058;8.688;2023-04-23T15:26:51;1.57;;;1.47;;
3747;SDS011;1889;50.058;8.688;2023-04-23T15:29:21;1.10;;;1.10;;
3747;SDS011;1889;50.058;8.688;2023-04-23T15:31:50;1.20;;;1.10;;
3747;SDS011;1889;50.058;8.688;2023-04-23T15:34:21;1.30;;;1.20;;
3747;SDS011;1889;50.058;8.688;2023-04-23T15:36:50;1.30;;;1.20;;
3747;SDS011;1889;50.058;8.688;2023-04-23T15:39:19;1.20;;;1.10;;
3747;SDS011;1889;50.058;8.688;2023-04-23T15:41:49;1.10;;;1.00;;